Airfield :
LOGIN :

Register | Disclaimer

   EN    FR    IT 

 










Legend :    VFR   Marginal VFR   IFR   Intensive IFR   Very Intensive IFR
Visi :
Ceiling :
>= 8 km
>= 3000ft
5 to 8 km
1000 to 3000 ft
1500m to 5 km
500 to 1000 ft
800 to 1500m
200 to 500 ft
< 800m
< 200 ft
Symbols :   Thunderstorms  Fog  Heavy snow  Heavy precipitations  Wind > 20 kt
SIGMETs :     Misc.  Thunderstorms  Icing  Turbulence  Mountain Waves  Volcanic Ashes







- Airport Elevation : 3 ft
- IATA code : LWR


EHLW - Leuuwarden Air Base

CURRENT METAR :
  • 240125Z AUTO 24019KT 9999 BKN005 OVC006 10/09 Q1012 YLO

EXPIRED METARs :
  • 240055Z AUTO 24018KT 9000 BR OVC004 10/09 Q1012 YLO
  • 240030Z AUTO 24019KT 9999 OVC004 10/09 Q1012 YLO
  • 240025Z AUTO 24021KT 9999 OVC005 10/09 Q1012 YLO
  • 232355Z AUTO 23018G28KT 9999 BKN005 OVC006 10/09 Q1012 YLO
  • 232329Z AUTO 23018G28KT 9999 BKN004 OVC006 10/09 Q1012 YLO
  • 232325Z AUTO 23020G30KT 9999 BKN005 OVC006 10/09 Q1012 YLO
  • 232304Z AUTO 23018KT 9999 BKN005 OVC006 10/09 Q1012 YLO
  • 232255Z AUTO 23018G29KT 9999 -RADZ BKN004 OVC006 10/09 Q1012 RERA REDZ YLO
  • 232239Z AUTO 23019KT 190V250 9999 BKN004 OVC005 10/09 Q1012 YLO

Expired Forecast.
No reported NOTAMs for that airfield.



MET'MAP, your aeronautical weather chart ! - Copyright ORBIFLY December 2007 - Disclaimer

ORBIFLY MET'MAP TEAM :

Programming & Development : Alexandra Zaïnal
Concept & Development : Baudouin d'Aumeries
Co-Development & Prog : Marc-Olivier Méhu
Technical & hardware support : Manuel Goepfert

Contact : metmap@orbifly.com




SOURCES & CREDITS :

   NOAA